Latest Weather Observations for Perisher Valley

IDN60901

Issued at 7:21 pm EST Wednesday 25 May 2016 (issued every 10 minutes, with the page automatically refreshed every 10 minutes)

About weather observations | Map of Canberra area stations | Latest observations for Canberra area | Other Formats
Station Details ID: 071075 Name: PERISHER VALLEY AWS Lat: -36.41 Lon: 148.41 Height: 1738.0 m
Data from the previous 72 hours. | See also: Recent months at Perisher Valley
Date/Time
EST
Tmp

°C
App
Tmp
°C
Dew
Point
°C
Rel
Hum
%
Delta-T

°C
Wind Press
QNH
hPa
Press
MSL
hPa
Rain
since
9 am
mm
Dir
 
Spd
km/h
Gust
km/h
Spd
kts
Gust
kts
25/07:00pm 0.8 -4.6 -1.0 88 0.7 WNW 17 35 9 19 - - 0.0
25/06:30pm 0.8 -3.8 -0.8 89 0.6 WNW 13 28 7 15 - - 0.0
25/06:00pm 0.9 -4.1 -0.9 88 0.7 W 15 30 8 16 - - 0.0
25/05:30pm 1.0 -5.3 -0.8 88 0.7 W 22 37 12 20 - - 0.0
25/05:00pm 1.2 -6.3 -1.2 84 1.0 W 28 46 15 25 - - 0.0
25/04:30pm 3.0 -5.0 -6.1 51 3.4 W 28 43 15 23 - - 0.0
25/04:25pm 3.0 -5.4 -6.4 50 3.5 W 30 50 16 27 - - 0.0
25/04:00pm 3.2 -5.6 -5.7 52 3.4 W 32 48 17 26 - - 0.0
25/03:30pm 3.3 -5.6 -5.1 54 3.1 W 33 48 18 26 - - 0.0
25/03:00pm 3.5 -5.7 -4.2 57 2.9 W 35 50 19 27 - - 0.0
25/02:38pm 1.4 -8.6 -1.3 82 1.1 W 41 63 22 34 - - 0.0
25/02:30pm 1.5 -8.1 -1.7 79 1.3 W 39 56 21 30 - - 0.0
25/02:22pm 1.9 -7.0 -2.2 74 1.6 W 35 56 19 30 - - 0.0
25/02:00pm 2.9 -6.1 -2.6 67 2.2 W 35 54 19 29 - - 0.0
25/01:44pm 3.8 -5.0 -1.4 69 2.1 W 35 54 19 29 - - 0.0
25/01:30pm 1.9 -7.3 -1.7 77 1.4 W 37 54 20 29 - - 0.0
25/01:01pm 2.5 -6.3 -4.5 60 2.7 W 33 54 18 29 - - 0.0
25/01:00pm 2.4 -6.7 -3.9 63 2.4 W 35 54 19 29 - - 0.0
25/12:30pm 1.4 -6.2 -2.2 77 1.5 W 28 54 15 29 - - 0.0
25/12:29pm 1.5 -6.1 -2.1 77 1.4 W 28 54 15 29 - - 0.0
25/12:00pm 2.9 -3.8 -4.5 58 2.8 W 22 39 12 21 - - 0.0
25/11:30am 1.7 -5.5 -5.0 61 2.5 W 24 39 13 21 - - 0.0
25/11:00am 3.0 -5.0 -9.9 38 4.4 W 26 43 14 23 - - 0.0
25/10:30am 3.2 -4.5 -11.9 32 4.9 W 24 35 13 19 - - 0.0
25/10:00am 4.1 -2.8 -13.2 27 5.5 W 19 32 10 17 - - 0.0
25/09:30am 4.4 -2.1 -13.4 26 5.7 WNW 17 28 9 15 - - 0.0
25/09:00am 5.4 -2.2 -15.1 21 6.4 W 22 41 12 22 - - 0.0
25/08:30am 5.5 -1.1 -14.5 22 6.3 W 17 35 9 19 - - 0.0
25/08:00am 4.1 -2.8 -13.6 26 5.6 WSW 19 32 10 17 - - 0.0
25/07:30am 3.7 -2.5 -14.5 25 5.6 WSW 15 26 8 14 - - 0.0
25/07:00am 3.4 -2.4 -13.8 27 5.3 WSW 13 28 7 15 - - 0.0
25/06:30am 3.5 -3.6 -13.3 28 5.3 WSW 20 32 11 17 - - 0.0
25/06:00am 4.3 -4.0 -14.4 24 5.8 W 26 43 14 23 - - 0.0
25/05:45am 4.3 -4.3 -13.5 26 5.6 W 28 44 15 24 - - 0.0
25/05:30am 2.9 -2.4 -12.5 31 4.9 WSW 11 26 6 14 - - 0.0
25/05:00am 1.9 -2.9 -10.6 39 4.1 WSW 9 19 5 10 - - 0.0
25/04:30am 2.0 -5.5 -8.1 47 3.5 W 24 35 13 19 - - 0.0
25/04:00am 2.9 -1.7 -13.8 28 5.1 WSW 7 22 4 12 - - 0.0
25/03:30am 2.8 -2.1 -12.6 31 4.8 SW 9 20 5 11 - - 0.0
25/03:00am 3.6 -2.1 -13.2 28 5.3 WSW 13 32 7 17 - - 0.0
25/02:30am 1.9 -3.7 -10.6 39 4.1 WSW 13 28 7 15 - - 0.0
25/02:00am 1.2 -5.4 -7.1 54 2.9 WSW 20 33 11 18 - - 0.0
25/01:30am 2.0 -3.6 -10.5 39 4.1 WSW 13 30 7 16 - - 0.0
25/01:00am 2.0 -4.7 -10.2 40 4.0 W 19 39 10 21 - - 0.0
25/12:30am 1.9 -6.4 -9.3 43 3.8 W 28 44 15 24 - - 0.0
25/12:00am 1.7 -4.8 -8.1 48 3.4 WSW 19 44 10 24 - - 0.0
 
Date/Time
EST
Tmp

°C
App
Tmp
°C
Dew
Point
°C
Rel
Hum
%
Delta-T

°C
Wind Press
QNH
hPa
Press
MSL
hPa
Rain
since
9 am
mm
Dir
 
Spd
km/h
Gust
km/h
Spd
kts
Gust
kts
24/11:30pm 1.4 -4.3 -7.1 53 3.0 WSW 15 33 8 18 - - 0.0
24/11:00pm 1.2 -4.7 -6.1 58 2.6 WSW 17 30 9 16 - - 0.0
24/10:30pm -0.2 -3.9 -4.6 72 1.6 SW 6 19 3 10 - - 0.0
24/10:00pm 0.8 -3.0 -5.6 62 2.3 WSW 6 19 3 10 - - 0.0
24/09:30pm 1.3 -4.5 -4.3 66 2.1 WSW 17 28 9 15 - - 0.0
24/09:00pm 1.6 -4.2 -4.5 64 2.3 WSW 17 32 9 17 - - 0.0
24/08:30pm 0.4 -3.5 -4.2 71 1.7 W 7 17 4 9 - - 0.0
24/08:00pm 0.6 -3.1 -4.4 69 1.9 WSW 6 17 3 9 - - 0.0
24/07:30pm 1.1 -3.8 -3.4 72 1.8 WSW 13 22 7 12 - - 0.0
24/07:00pm 1.0 -4.2 -2.4 78 1.4 W 15 24 8 13 - - 0.0
24/06:30pm 1.1 -3.3 -2.5 77 1.5 W 11 26 6 14 - - 0.0
24/06:00pm 1.1 -2.9 -2.5 77 1.5 WSW 9 24 5 13 - - 0.0
24/05:30pm 1.3 -3.1 -2.3 77 1.5 W 11 22 6 12 - - 0.0
24/05:00pm 1.6 -3.3 -3.1 71 1.9 W 13 32 7 17 - - 0.0
24/04:30pm 2.0 -2.5 -3.3 68 2.1 WSW 11 28 6 15 - - 0.0
24/04:00pm 2.5 -3.2 -3.4 65 2.3 W 17 33 9 18 - - 0.0
24/03:30pm 3.6 -0.9 -3.4 60 2.7 WSW 11 22 6 12 - - 0.0
24/03:00pm 3.9 -1.3 -3.1 60 2.7 WSW 15 35 8 19 - - 0.0
24/02:30pm 4.5 -0.4 -3.3 57 3.1 WSW 13 28 7 15 - - 0.0
24/02:00pm 4.7 -1.5 -4.8 50 3.6 WSW 19 46 10 25 - - 0.0
24/01:30pm 4.4 -1.7 -4.3 53 3.3 WSW 19 35 10 19 - - 0.0
24/01:00pm 4.5 -1.6 -4.2 53 3.3 WSW 19 41 10 22 - - 0.0
24/12:30pm 4.8 -0.7 -5.8 46 3.9 WSW 15 43 8 23 - - 0.0
24/12:00pm 4.7 -0.4 -5.1 49 3.7 SW 13 35 7 19 - - 0.0
24/11:30am 4.2 -0.7 -3.8 56 3.1 WSW 13 35 7 19 - - 0.0
24/11:00am 4.2 -0.4 -4.0 55 3.1 WSW 11 28 6 15 - - 0.0
24/10:30am 3.4 -1.5 -3.6 60 2.7 SW 13 28 7 15 - - 0.0
24/10:00am 2.8 -2.5 -3.7 62 2.5 WSW 15 30 8 16 - - 0.0
24/09:30am 2.3 -2.3 -4.0 63 2.5 SW 11 30 6 16 - - 0.0
24/09:00am 1.9 -2.3 -4.2 64 2.4 SW 9 22 5 12 - - 1.0
24/08:30am 1.4 -3.2 -4.0 67 2.1 SSW 11 30 6 16 - - 1.0
24/08:00am 0.3 -5.8 -3.6 75 1.5 WSW 19 39 10 21 - - 1.0
24/07:30am 0.1 -6.0 -4.0 74 1.5 WSW 19 43 10 23 - - 1.0
24/07:00am -0.4 -6.7 -4.3 75 1.4 W 20 37 11 20 - - 1.0
24/06:30am -0.3 -6.4 -3.7 78 1.2 W 19 41 10 22 - - 1.0
24/06:00am -0.4 -6.5 -4.1 76 1.3 W 19 43 10 23 - - 1.0
24/05:30am 0.0 -6.7 -4.6 71 1.7 W 22 46 12 25 - - 1.0
24/05:00am 0.2 -6.5 -4.4 71 1.7 W 22 39 12 21 - - 1.0
24/04:30am -0.1 -6.1 -3.1 80 1.1 W 19 43 10 23 - - 1.0
24/04:04am 0.0 -7.7 -2.9 81 1.1 WSW 28 54 15 29 - - 1.0
24/04:00am -0.1 -7.0 -2.8 82 1.0 WSW 24 50 13 27 - - 1.0
24/03:30am 0.0 -6.8 -1.9 87 0.7 W 24 44 13 24 - - 1.0
24/03:00am -0.1 -5.9 -1.5 90 0.5 W 19 44 10 24 - - 1.0
24/02:30am 0.0 -6.4 -1.6 89 0.6 W 22 48 12 26 - - 1.0
24/02:14am 0.1 -7.4 -1.3 90 0.6 W 28 56 15 30 - - 1.0
24/02:00am 0.1 -6.2 -1.2 91 0.5 WSW 22 37 12 20 - - 1.0
24/01:40am 0.1 -7.5 -1.8 87 0.7 W 28 57 15 31 - - 1.0
24/01:30am 0.0 -7.1 -1.6 89 0.6 W 26 56 14 30 - - 1.0
24/01:00am 0.4 -5.6 -1.7 86 0.8 W 20 46 11 25 - - 1.0
24/12:30am 0.3 -8.0 -1.6 87 0.8 W 32 54 17 29 - - 1.0
24/12:19am 0.3 -7.2 -1.6 87 0.8 WSW 28 54 15 29 - - 1.0
24/12:00am 0.1 -6.2 -1.3 90 0.6 W 22 39 12 21 - - 1.0
 
Date/Time
EST
Tmp

°C
App
Tmp
°C
Dew
Point
°C
Rel
Hum
%
Delta-T

°C
Wind Press
QNH
hPa
Press
MSL
hPa
Rain
since
9 am
mm
Dir
 
Spd
km/h
Gust
km/h
Spd
kts
Gust
kts
23/11:32pm 0.2 -7.3 -1.2 90 0.6 WSW 28 48 15 26 - - 1.0
23/11:30pm 0.2 -6.9 -1.2 90 0.6 WSW 26 48 14 26 - - 1.0
23/11:24pm 0.3 -7.2 -1.3 89 0.6 WSW 28 57 15 31 - - 0.8
23/11:00pm 0.2 -6.9 -1.4 89 0.6 W 26 57 14 31 - - 0.8
23/10:34pm 0.3 -7.2 -1.4 88 0.7 W 28 72 15 39 - - 0.6
23/10:30pm 0.1 -6.6 -1.3 90 0.6 W 24 46 13 25 - - 0.6
23/10:00pm -0.1 -8.0 -1.4 91 0.5 W 30 59 16 32 - - 0.4
23/09:30pm -0.1 -7.6 -1.4 91 0.5 W 28 59 15 32 - - 0.2
23/09:00pm 0.2 -7.3 -1.7 87 0.8 W 28 56 15 30 - - 0.0
23/08:30pm 0.5 -7.0 -1.7 85 0.9 W 28 65 15 35 - - 0.0
23/08:00pm 0.4 -7.6 -2.1 83 1.0 W 30 61 16 33 - - 0.0
23/07:30pm 1.0 -7.5 -2.9 75 1.5 W 32 59 17 32 - - 0.0
23/07:00pm 0.8 -7.5 -1.9 82 1.1 W 32 65 17 35 - - 0.0
23/06:30pm 0.4 -7.8 -0.9 91 0.5 W 32 72 17 39 - - 0.0
23/06:23pm 0.6 -6.9 -1.2 88 0.7 W 28 70 15 38 - - 0.0
23/06:20pm 0.6 -6.5 -1.2 88 0.7 W 26 70 14 38 - - 0.0
23/06:03pm 0.6 -6.9 -1.3 87 0.8 W 28 50 15 27 - - 0.0
23/06:00pm 0.4 -6.3 -0.9 91 0.5 WNW 24 46 13 25 - - 0.0
23/05:30pm 1.0 -7.3 -1.7 82 1.1 W 32 59 17 32 - - 0.0
23/05:19pm 0.8 -6.7 -1.6 84 1.0 W 28 54 15 29 - - 0.0
23/05:00pm 1.1 -5.6 -1.3 84 1.0 W 24 50 13 27 - - 0.0
23/04:37pm 1.3 -6.3 -1.8 80 1.2 W 28 56 15 30 - - 0.0
23/04:30pm 1.3 -5.9 -1.8 80 1.2 W 26 50 14 27 - - 0.0
23/04:00pm 1.5 -5.6 -0.9 84 1.0 W 26 56 14 30 - - 0.0
23/03:30pm 1.7 -5.8 -1.7 78 1.3 W 28 57 15 31 - - 0.0
23/03:01pm 1.6 -5.8 -1.0 83 1.0 W 28 56 15 30 - - 0.0
23/03:00pm 1.5 -5.5 -0.6 86 0.9 W 26 56 14 30 - - 0.0
23/02:41pm 2.0 -5.5 -1.1 80 1.3 W 28 63 15 34 - - 0.0
23/02:30pm 2.1 -4.2 -1.2 79 1.3 W 22 50 12 27 - - 0.0
23/02:00pm 2.1 -5.4 -1.5 77 1.4 W 28 54 15 29 - - 0.0
23/01:38pm 2.0 -5.5 -1.6 77 1.4 W 28 72 15 39 - - 0.0
23/01:30pm 2.2 -5.3 -1.1 79 1.3 W 28 54 15 29 - - 0.0
23/01:00pm 1.9 -6.3 -0.7 83 1.1 WSW 32 65 17 35 - - 0.0
23/12:30pm 2.0 -6.4 -1.1 80 1.3 W 33 65 18 35 - - 0.0
23/12:00pm 2.0 -6.8 -1.2 79 1.3 W 35 82 19 44 - - 0.0
23/11:30am 2.0 -6.3 -0.6 83 1.1 WNW 33 70 18 38 - - 0.0
23/11:00am 1.7 -7.8 -0.9 83 1.1 WNW 39 76 21 41 - - 0.0
23/10:30am 1.9 -7.9 -0.3 85 0.9 WNW 41 72 22 39 - - 0.0
23/10:00am 1.9 -7.5 -0.2 86 0.9 W 39 78 21 42 - - 0.0
23/09:46am 1.8 -7.6 0.0 88 0.7 W 39 82 21 44 - - 0.0
23/09:30am 2.3 -6.0 0.0 85 1.0 WNW 33 54 18 29 - - 0.0
23/09:01am 2.5 -4.7 0.9 89 0.7 WNW 28 56 15 30 - - 0.0
23/09:00am 2.5 -3.9 0.7 88 0.8 WNW 24 48 13 26 - - 15.0
23/08:30am 3.0 -2.8 2.4 96 0.3 WNW 22 54 12 29 - - 15.0
23/08:00am 5.1 -0.8 3.8 91 0.6 W 24 70 13 38 - - 13.4
23/07:40am 6.2 -0.1 5.5 95 0.3 W 28 61 15 33 - - 11.0
23/07:30am 6.3 0.7 5.4 94 0.4 W 24 54 13 29 - - 10.2
23/07:00am 6.3 3.3 5.9 97 0.2 WNW 11 28 6 15 - - 5.8
23/06:30am 6.8 4.3 6.4 97 0.2 NW 9 33 5 18 - - 5.0
23/06:00am 6.5 2.4 6.1 97 0.2 W 17 41 9 22 - - 3.2
23/05:30am 6.7 2.1 5.5 92 0.6 W 19 44 10 24 - - 2.2
23/05:00am 7.0 -0.1 5.5 90 0.7 W 32 76 17 41 - - 0.8
23/04:30am 7.2 0.9 5.8 91 0.7 W 28 67 15 36 - - 0.4
23/04:01am 7.4 1.1 5.7 89 0.8 W 28 70 15 38 - - 0.0
23/04:00am 7.4 1.5 5.7 89 0.8 W 26 57 14 31 - - 0.0
23/03:44am 7.7 1.4 5.5 86 1.1 W 28 61 15 33 - - 0.0
23/03:30am 8.1 3.2 4.9 80 1.6 W 20 50 11 27 - - 0.0
23/03:00am 8.3 5.1 5.1 80 1.6 W 11 30 6 16 - - 0.0
23/02:30am 8.2 5.9 5.5 83 1.3 NNW 7 28 4 15 - - 0.0
23/02:00am 8.2 5.5 5.5 83 1.3 NE 9 33 5 18 - - 0.0
23/01:30am 8.2 5.9 5.7 84 1.3 N 7 28 4 15 - - 0.0
23/01:00am 8.3 6.1 5.4 82 1.4 NNW 6 20 3 11 - - 0.0
23/12:30am 8.3 6.2 5.8 84 1.3 NNW 6 24 3 13 - - 0.0
23/12:00am 8.3 2.8 5.9 85 1.2 W 24 52 13 28 - - 0.0
 
Date/Time
EST
Tmp

°C
App
Tmp
°C
Dew
Point
°C
Rel
Hum
%
Delta-T

°C
Wind Press
QNH
hPa
Press
MSL
hPa
Rain
since
9 am
mm
Dir
 
Spd
km/h
Gust
km/h
Spd
kts
Gust
kts
22/11:30pm 8.2 1.2 5.8 85 1.2 W 32 57 17 31 - - 0.0
22/11:00pm 8.2 0.6 6.0 86 1.1 W 35 63 19 34 - - 0.0
22/10:30pm 8.0 -0.9 5.3 83 1.3 W 41 59 22 32 - - 0.0
22/10:00pm 8.0 -1.5 4.9 81 1.5 W 44 67 24 36 - - 0.0
22/09:30pm 7.9 -1.5 4.3 78 1.7 W 43 67 23 36 - - 0.0
22/09:00pm 8.2 -1.0 3.3 71 2.3 W 41 67 22 36 - - 0.0
22/08:30pm 8.6 -1.1 0.8 58 3.5 W 41 63 22 34 - - 0.0
22/08:16pm 8.6 1.3 0.1 55 3.8 W 28 57 15 31 - - 0.0
22/08:00pm 8.5 2.4 0.2 56 3.7 W 22 44 12 24 - - 0.0
22/07:30pm 8.3 2.8 0.3 57 3.6 W 19 43 10 23 - - 0.0

Latest Capital City Observations: Canberra | Sydney | Melbourne | Brisbane | Adelaide | Perth | Hobart | Darwin

Other Formats:

Comma delimited format used in spreadsheet applications
http://www.bom.gov.au/fwo/IDN60903/IDN60903.94915.axf

JavaScript Object Notation format (JSON) in row-major order
http://www.bom.gov.au/fwo/IDN60903/IDN60903.94915.json